Check out our new PWSWeather beta!
PWSweather.com
Personal Weather Stations
Station Observations
SHAHALMS1
Eftra, Falkenberg, HA

EftraFalkenberg, HA

Lat: 56.85, Lon: 12.65

Elevation: 140

Station Type:

http://hem.passagen.se/risarp101

High Low Average
Temperature 67.6°F19.8°C 56.7°F13.7°C 62.5°F16.9°C
Dew Point 63.9°F17.7°C 53.9°F12.2°C 59.3°F15.2°C
Winds 8.1 mph 13.0 kmh Calm Calm 2.0 mph SSE3.2 kmh SSE
Wind Gusts 20.8 mph33.5 kmh -- 5.0 mph8.0 kmh
Humidity 96% 74% 90%
Pressure 29.71 in1006.1 mb 29.62 in1003.0 mb -
Precipitation 0.28 in7.1 mm - -
Hour Temp Dew Point Humidity Winds Wind Gusts Pressure Precip Precip Rate Daily Precip Total
12:00 AM 63.3°F17.4°C 61.9°F16.6°C 95% 3.9 mph S6.3 kmh S 12.9 mph20.8 kmh 29.71 in1006.1 mb 0.00 in0.0 mm 0.00 in0.0 mm 0.00 in0.0 mm
12:10 AM 63.3°F17.4°C 61.9°F16.6°C 95% 3.8 mph S6.1 kmh S 10.4 mph16.7 kmh 29.71 in1006.1 mb 0.00 in0.0 mm 0.00 in0.0 mm 0.00 in0.0 mm
12:20 AM 63.3°F17.4°C 61.9°F16.6°C 95% 8.1 mph S13.0 kmh S 20.8 mph33.5 kmh 29.71 in1006.1 mb 0.05 in1.3 mm 0.30 in7.6 mm 0.05 in1.3 mm
12:30 AM 63.1°F17.3°C 61.7°F16.5°C 95% 4.2 mph SW6.8 kmh SW 15.7 mph25.3 kmh 29.71 in1006.1 mb 0.05 in1.3 mm 0.00 in0.0 mm 0.05 in1.3 mm
12:40 AM 62.6°F17.0°C 60.8°F16.0°C 94% 3.7 mph S6.0 kmh S 8.6 mph13.8 kmh 29.71 in1006.1 mb 0.05 in1.3 mm 0.00 in0.0 mm 0.05 in1.3 mm
12:50 AM 62.6°F17.0°C 61.1°F16.2°C 95% 3.9 mph S6.3 kmh S 5.4 mph8.7 kmh 29.71 in1006.1 mb 0.05 in1.3 mm 0.00 in0.0 mm 0.05 in1.3 mm
01:00 AM 62.4°F16.9°C 61.0°F16.1°C 95% 5.2 mph S8.4 kmh S 9.3 mph15.0 kmh 29.71 in1006.1 mb 0.05 in1.3 mm 0.00 in0.0 mm 0.05 in1.3 mm
01:10 AM 62.2°F16.8°C 60.8°F16.0°C 95% 5.5 mph S8.9 kmh S 6.8 mph10.9 kmh 29.71 in1006.1 mb 0.05 in1.3 mm 0.00 in0.0 mm 0.05 in1.3 mm
01:20 AM 62.4°F16.9°C 61.0°F16.1°C 95% 5.5 mph S8.9 kmh S 6.8 mph10.9 kmh 29.71 in1006.1 mb 0.00 in0.0 mm 0.00 in0.0 mm 0.05 in1.3 mm
01:30 AM 62.2°F16.8°C 60.8°F16.0°C 95% 5.5 mph S8.9 kmh S 6.8 mph10.9 kmh 29.71 in1006.1 mb 0.00 in0.0 mm 0.00 in0.0 mm 0.05 in1.3 mm
01:40 AM 62.1°F16.7°C 60.6°F15.9°C 95% 5.5 mph S8.9 kmh S 6.8 mph10.9 kmh 29.71 in1006.1 mb 0.00 in0.0 mm 0.00 in0.0 mm 0.05 in1.3 mm
01:50 AM 62.2°F16.8°C 60.8°F16.0°C 95% 5.5 mph S8.9 kmh S 6.8 mph10.9 kmh 29.71 in1006.1 mb 0.00 in0.0 mm 0.00 in0.0 mm 0.05 in1.3 mm
02:00 AM 62.2°F16.8°C 60.8°F16.0°C 95% 5.5 mph S8.9 kmh S 6.8 mph10.9 kmh 29.71 in1006.1 mb 0.00 in0.0 mm 0.00 in0.0 mm 0.05 in1.3 mm
02:10 AM 62.2°F16.8°C 60.8°F16.0°C 95% 5.5 mph S8.9 kmh S 6.8 mph10.9 kmh 29.71 in1006.1 mb 0.00 in0.0 mm 0.00 in0.0 mm 0.05 in1.3 mm
02:20 AM 62.1°F16.7°C 60.6°F15.9°C 95% 5.5 mph S8.9 kmh S 6.8 mph10.9 kmh 29.71 in1006.1 mb 0.00 in0.0 mm 0.00 in0.0 mm 0.05 in1.3 mm
02:30 AM 61.9°F16.6°C 60.4°F15.8°C 95% 0.3 mph W0.5 kmh W 4.7 mph7.6 kmh 29.68 in1005.1 mb 0.00 in0.0 mm 0.00 in0.0 mm 0.05 in1.3 mm
02:40 AM 61.7°F16.5°C 60.3°F15.7°C 95% 0.9 mph SW1.4 kmh SW 3.2 mph5.1 kmh 29.68 in1005.1 mb 0.00 in0.0 mm 0.00 in0.0 mm 0.05 in1.3 mm
02:50 AM 61.5°F16.4°C 60.1°F15.6°C 95% 4.8 mph S7.7 kmh S 8.9 mph14.3 kmh 29.71 in1006.1 mb 0.00 in0.0 mm 0.00 in0.0 mm 0.05 in1.3 mm
03:00 AM 61.3°F16.3°C 59.9°F15.5°C 95% 3.7 mph S6.0 kmh S 9.7 mph15.6 kmh 29.71 in1006.1 mb 0.00 in0.0 mm 0.00 in0.0 mm 0.05 in1.3 mm
03:10 AM 61.3°F16.3°C 59.9°F15.5°C 95% 1.6 mph S2.6 kmh S 5.0 mph8.0 kmh 29.71 in1006.1 mb 0.00 in0.0 mm 0.00 in0.0 mm 0.05 in1.3 mm
03:20 AM 61.3°F16.3°C 59.9°F15.5°C 95% 1.4 mph S2.3 kmh S 5.0 mph8.0 kmh 29.68 in1005.1 mb 0.00 in0.0 mm 0.00 in0.0 mm 0.05 in1.3 mm
03:30 AM 61.2°F16.2°C 59.7°F15.4°C 95% 0.9 mph S1.4 kmh S 5.4 mph8.7 kmh 29.68 in1005.1 mb 0.00 in0.0 mm 0.00 in0.0 mm 0.05 in1.3 mm
03:40 AM 61.2°F16.2°C 59.7°F15.4°C 95% Calm Calm -- 29.68 in1005.1 mb 0.00 in0.0 mm 0.00 in0.0 mm 0.05 in1.3 mm
03:50 AM 61.0°F16.1°C 59.5°F15.3°C 95% Calm Calm -- 29.68 in1005.1 mb 0.00 in0.0 mm 0.00 in0.0 mm 0.05 in1.3 mm
04:00 AM 61.0°F16.1°C 59.5°F15.3°C 95% Calm Calm -- 29.68 in1005.1 mb 0.00 in0.0 mm 0.00 in0.0 mm 0.05 in1.3 mm
04:10 AM 61.0°F16.1°C 59.5°F15.3°C 95% 0.6 mph S1.0 kmh S 4.7 mph7.6 kmh 29.68 in1005.1 mb 0.00 in0.0 mm 0.00 in0.0 mm 0.05 in1.3 mm
04:20 AM 61.0°F16.1°C 59.5°F15.3°C 95% 2.5 mph S4.0 kmh S 5.0 mph8.0 kmh 29.68 in1005.1 mb 0.00 in0.0 mm 0.00 in0.0 mm 0.05 in1.3 mm
04:30 AM 60.8°F16.0°C 59.4°F15.2°C 95% 2.5 mph S4.0 kmh S 6.4 mph10.3 kmh 29.68 in1005.1 mb 0.00 in0.0 mm 0.00 in0.0 mm 0.05 in1.3 mm
04:40 AM 60.6°F15.9°C 59.2°F15.1°C 95% 4.0 mph S6.4 kmh S 5.4 mph8.7 kmh 29.68 in1005.1 mb 0.00 in0.0 mm 0.00 in0.0 mm 0.05 in1.3 mm
04:50 AM 60.6°F15.9°C 59.2°F15.1°C 95% 0.7 mph S1.1 kmh S 5.4 mph8.7 kmh 29.68 in1005.1 mb 0.05 in1.3 mm 0.30 in7.6 mm 0.09 in2.3 mm
05:00 AM 60.3°F15.7°C 58.8°F14.9°C 95% Calm Calm -- 29.68 in1005.1 mb 0.05 in1.3 mm 0.00 in0.0 mm 0.09 in2.3 mm
05:10 AM 60.1°F15.6°C 58.6°F14.8°C 95% 4.9 mph SE7.9 kmh SE 6.1 mph9.8 kmh 29.68 in1005.1 mb 0.05 in1.3 mm 0.00 in0.0 mm 0.09 in2.3 mm
05:20 AM 60.3°F15.7°C 58.8°F14.9°C 95% 3.6 mph SE5.8 kmh SE 6.1 mph9.8 kmh 29.68 in1005.1 mb 0.05 in1.3 mm 0.00 in0.0 mm 0.09 in2.3 mm
05:30 AM 60.3°F15.7°C 58.8°F14.9°C 95% Calm Calm -- 29.68 in1005.1 mb 0.05 in1.3 mm 0.00 in0.0 mm 0.09 in2.3 mm
05:40 AM 60.3°F15.7°C 58.8°F14.9°C 95% Calm Calm -- 29.68 in1005.1 mb 0.05 in1.3 mm 0.00 in0.0 mm 0.09 in2.3 mm
05:50 AM 60.3°F15.7°C 58.8°F14.9°C 95% Calm Calm -- 29.68 in1005.1 mb 0.00 in0.0 mm 0.00 in0.0 mm 0.09 in2.3 mm
06:00 AM 60.3°F15.7°C 58.8°F14.9°C 95% 3.6 mph E5.8 kmh E 5.0 mph8.0 kmh 29.68 in1005.1 mb 0.00 in0.0 mm 0.00 in0.0 mm 0.09 in2.3 mm
06:10 AM 60.4°F15.8°C 59.3°F15.2°C 96% 4.1 mph E6.6 kmh E 5.0 mph8.0 kmh 29.68 in1005.1 mb 0.00 in0.0 mm 0.00 in0.0 mm 0.09 in2.3 mm
06:20 AM 60.4°F15.8°C 59.3°F15.2°C 96% 4.1 mph E6.6 kmh E 5.0 mph8.0 kmh 29.68 in1005.1 mb 0.00 in0.0 mm 0.00 in0.0 mm 0.09 in2.3 mm
06:30 AM 60.8°F16.0°C 59.7°F15.4°C 96% 4.1 mph E6.6 kmh E 5.0 mph8.0 kmh 29.68 in1005.1 mb 0.00 in0.0 mm 0.00 in0.0 mm 0.09 in2.3 mm
06:40 AM 61.3°F16.3°C 60.2°F15.7°C 96% 4.1 mph E6.6 kmh E 5.0 mph8.0 kmh 29.68 in1005.1 mb 0.00 in0.0 mm 0.00 in0.0 mm 0.09 in2.3 mm
06:50 AM 61.7°F16.5°C 60.5°F15.8°C 96% 4.1 mph E6.6 kmh E 5.0 mph8.0 kmh 29.68 in1005.1 mb 0.00 in0.0 mm 0.00 in0.0 mm 0.09 in2.3 mm
07:00 AM 62.4°F16.9°C 61.3°F16.3°C 96% 4.1 mph E6.6 kmh E 5.0 mph8.0 kmh 29.68 in1005.1 mb 0.00 in0.0 mm 0.00 in0.0 mm 0.09 in2.3 mm
07:10 AM 62.8°F17.1°C 61.6°F16.4°C 96% Calm Calm -- 29.68 in1005.1 mb 0.00 in0.0 mm 0.00 in0.0 mm 0.09 in2.3 mm
07:20 AM 63.1°F17.3°C 62.0°F16.7°C 96% Calm Calm -- 29.68 in1005.1 mb 0.00 in0.0 mm 0.00 in0.0 mm 0.09 in2.3 mm
07:30 AM 63.3°F17.4°C 62.2°F16.8°C 96% Calm Calm -- 29.68 in1005.1 mb 0.00 in0.0 mm 0.00 in0.0 mm 0.09 in2.3 mm
07:40 AM 63.3°F17.4°C 61.9°F16.6°C 95% Calm Calm -- 29.68 in1005.1 mb 0.00 in0.0 mm 0.00 in0.0 mm 0.09 in2.3 mm
07:50 AM 63.5°F17.5°C 62.0°F16.7°C 95% Calm Calm -- 29.68 in1005.1 mb 0.00 in0.0 mm 0.00 in0.0 mm 0.09 in2.3 mm
08:00 AM 63.5°F17.5°C 62.0°F16.7°C 95% Calm Calm -- 29.68 in1005.1 mb 0.00 in0.0 mm 0.00 in0.0 mm 0.09 in2.3 mm
08:10 AM 63.3°F17.4°C 61.9°F16.6°C 95% Calm Calm -- 29.68 in1005.1 mb 0.00 in0.0 mm 0.00 in0.0 mm 0.09 in2.3 mm
08:20 AM 63.3°F17.4°C 61.9°F16.6°C 95% 0.5 mph S0.8 kmh S 4.3 mph6.9 kmh 29.68 in1005.1 mb 0.00 in0.0 mm 0.00 in0.0 mm 0.09 in2.3 mm
08:30 AM 64.2°F17.9°C 62.8°F17.1°C 95% 0.6 mph SSE1.0 kmh SSE 5.0 mph8.0 kmh 29.68 in1005.1 mb 0.00 in0.0 mm 0.00 in0.0 mm 0.09 in2.3 mm
08:40 AM 64.6°F18.1°C 63.1°F17.3°C 95% 1.1 mph S1.8 kmh S 5.7 mph9.2 kmh 29.68 in1005.1 mb 0.00 in0.0 mm 0.00 in0.0 mm 0.09 in2.3 mm
08:50 AM 64.9°F18.3°C 63.2°F17.3°C 94% 1.4 mph S2.3 kmh S 5.0 mph8.0 kmh 29.65 in1004.1 mb 0.00 in0.0 mm 0.00 in0.0 mm 0.09 in2.3 mm
09:00 AM 65.3°F18.5°C 63.5°F17.5°C 94% 1.1 mph SE1.8 kmh SE 4.7 mph7.6 kmh 29.68 in1005.1 mb 0.00 in0.0 mm 0.00 in0.0 mm 0.09 in2.3 mm
09:10 AM 65.7°F18.7°C 63.9°F17.7°C 94% 0.3 mph W0.5 kmh W 6.4 mph10.3 kmh 29.68 in1005.1 mb 0.00 in0.0 mm 0.00 in0.0 mm 0.09 in2.3 mm
09:20 AM 65.8°F18.8°C 63.8°F17.7°C 93% 2.2 mph WSW3.5 kmh WSW 6.4 mph10.3 kmh 29.68 in1005.1 mb 0.00 in0.0 mm 0.00 in0.0 mm 0.09 in2.3 mm
09:30 AM 66.0°F18.9°C 63.6°F17.6°C 92% 2.9 mph SW4.7 kmh SW 6.8 mph10.9 kmh 29.68 in1005.1 mb 0.00 in0.0 mm 0.00 in0.0 mm 0.09 in2.3 mm
09:40 AM 65.7°F18.7°C 63.0°F17.2°C 91% 2.5 mph SW4.0 kmh SW 6.1 mph9.8 kmh 29.68 in1005.1 mb 0.00 in0.0 mm 0.00 in0.0 mm 0.09 in2.3 mm
09:50 AM 65.8°F18.8°C 63.1°F17.3°C 91% 1.4 mph SW2.3 kmh SW 6.8 mph10.9 kmh 29.68 in1005.1 mb 0.00 in0.0 mm 0.00 in0.0 mm 0.09 in2.3 mm
10:00 AM 65.7°F18.7°C 62.3°F16.8°C 89% 2.0 mph S3.2 kmh S 6.4 mph10.3 kmh 29.68 in1005.1 mb 0.00 in0.0 mm 0.00 in0.0 mm 0.09 in2.3 mm
10:10 AM 65.7°F18.7°C 62.3°F16.8°C 89% 1.1 mph S1.8 kmh S 5.0 mph8.0 kmh 29.68 in1005.1 mb 0.00 in0.0 mm 0.00 in0.0 mm 0.09 in2.3 mm
10:20 AM 65.7°F18.7°C 62.0°F16.7°C 88% 1.0 mph S1.6 kmh S 5.0 mph8.0 kmh 29.68 in1005.1 mb 0.00 in0.0 mm 0.00 in0.0 mm 0.09 in2.3 mm
10:30 AM 65.7°F18.7°C 61.7°F16.5°C 87% 2.2 mph S3.5 kmh S 3.9 mph6.3 kmh 29.68 in1005.1 mb 0.00 in0.0 mm 0.00 in0.0 mm 0.09 in2.3 mm
10:40 AM 65.5°F18.6°C 61.5°F16.4°C 87% 0.8 mph S1.3 kmh S 5.0 mph8.0 kmh 29.68 in1005.1 mb 0.00 in0.0 mm 0.00 in0.0 mm 0.09 in2.3 mm
10:50 AM 65.5°F18.6°C 60.8°F16.0°C 85% 2.5 mph S4.0 kmh S 8.6 mph13.8 kmh 29.68 in1005.1 mb 0.00 in0.0 mm 0.00 in0.0 mm 0.09 in2.3 mm
11:00 AM 65.5°F18.6°C 60.5°F15.8°C 84% 3.8 mph S6.1 kmh S 9.3 mph15.0 kmh 29.68 in1005.1 mb 0.00 in0.0 mm 0.00 in0.0 mm 0.09 in2.3 mm
11:10 AM 65.3°F18.5°C 60.0°F15.6°C 83% 3.2 mph S5.1 kmh S 6.8 mph10.9 kmh 29.68 in1005.1 mb 0.00 in0.0 mm 0.00 in0.0 mm 0.09 in2.3 mm
11:20 AM 65.3°F18.5°C 60.0°F15.6°C 83% 2.2 mph S3.5 kmh S 5.7 mph9.2 kmh 29.68 in1005.1 mb 0.00 in0.0 mm 0.00 in0.0 mm 0.09 in2.3 mm
11:30 AM 65.5°F18.6°C 60.5°F15.8°C 84% 0.9 mph S1.4 kmh S 6.1 mph9.8 kmh 29.68 in1005.1 mb 0.00 in0.0 mm 0.00 in0.0 mm 0.09 in2.3 mm
11:40 AM 65.7°F18.7°C 60.4°F15.8°C 83% 1.9 mph S3.1 kmh S 5.7 mph9.2 kmh 29.68 in1005.1 mb 0.00 in0.0 mm 0.00 in0.0 mm 0.09 in2.3 mm
11:50 AM 65.8°F18.8°C 60.5°F15.8°C 83% 3.5 mph SSW5.6 kmh SSW 7.2 mph11.6 kmh 29.68 in1005.1 mb 0.00 in0.0 mm 0.00 in0.0 mm 0.09 in2.3 mm
12:00 PM 66.4°F19.1°C 60.7°F15.9°C 82% 3.2 mph S5.1 kmh S 8.6 mph13.8 kmh 29.68 in1005.1 mb 0.00 in0.0 mm 0.00 in0.0 mm 0.09 in2.3 mm
12:10 PM 66.6°F19.2°C 60.2°F15.7°C 80% 3.9 mph SSW6.3 kmh SSW 8.9 mph14.3 kmh 29.68 in1005.1 mb 0.00 in0.0 mm 0.00 in0.0 mm 0.09 in2.3 mm
12:20 PM 67.3°F19.6°C 60.9°F16.1°C 80% 2.7 mph S4.3 kmh S 8.6 mph13.8 kmh 29.68 in1005.1 mb 0.00 in0.0 mm 0.00 in0.0 mm 0.09 in2.3 mm
12:30 PM 67.3°F19.6°C 60.2°F15.7°C 78% 2.7 mph S4.3 kmh S 7.5 mph12.1 kmh 29.68 in1005.1 mb 0.00 in0.0 mm 0.00 in0.0 mm 0.09 in2.3 mm
12:40 PM 67.1°F19.5°C 60.0°F15.6°C 78% 2.8 mph SW4.5 kmh SW 6.1 mph9.8 kmh 29.68 in1005.1 mb 0.00 in0.0 mm 0.00 in0.0 mm 0.09 in2.3 mm
12:50 PM 67.6°F19.8°C 60.9°F16.1°C 79% 2.4 mph SW3.9 kmh SW 8.9 mph14.3 kmh 29.68 in1005.1 mb 0.00 in0.0 mm 0.00 in0.0 mm 0.09 in2.3 mm
01:00 PM 67.5°F19.7°C 59.6°F15.3°C 76% 2.7 mph SSW4.3 kmh SSW 9.7 mph15.6 kmh 29.68 in1005.1 mb 0.00 in0.0 mm 0.00 in0.0 mm 0.09 in2.3 mm
01:10 PM 67.6°F19.8°C 60.2°F15.7°C 77% 2.9 mph S4.7 kmh S 9.7 mph15.6 kmh 29.68 in1005.1 mb 0.00 in0.0 mm 0.00 in0.0 mm 0.09 in2.3 mm
01:20 PM 67.5°F19.7°C 59.6°F15.3°C 76% 2.7 mph S4.3 kmh S 9.7 mph15.6 kmh 29.68 in1005.1 mb 0.00 in0.0 mm 0.00 in0.0 mm 0.09 in2.3 mm
01:30 PM 67.6°F19.8°C 60.2°F15.7°C 77% 2.6 mph S4.2 kmh S 7.5 mph12.1 kmh 29.68 in1005.1 mb 0.00 in0.0 mm 0.00 in0.0 mm 0.09 in2.3 mm
01:40 PM 67.6°F19.8°C 59.8°F15.4°C 76% 1.9 mph S3.1 kmh S 6.1 mph9.8 kmh 29.68 in1005.1 mb 0.00 in0.0 mm 0.00 in0.0 mm 0.09 in2.3 mm
01:50 PM 66.9°F19.4°C 58.4°F14.7°C 74% 2.9 mph S4.7 kmh S 6.8 mph10.9 kmh 29.68 in1005.1 mb 0.00 in0.0 mm 0.00 in0.0 mm 0.09 in2.3 mm
02:00 PM 66.6°F19.2°C 58.4°F14.7°C 75% 3.1 mph S5.0 kmh S 8.6 mph13.8 kmh 29.68 in1005.1 mb 0.00 in0.0 mm 0.00 in0.0 mm 0.09 in2.3 mm
02:10 PM 65.8°F18.8°C 58.1°F14.5°C 76% 4.8 mph S7.7 kmh S 12.2 mph19.6 kmh 29.68 in1005.1 mb 0.00 in0.0 mm 0.00 in0.0 mm 0.09 in2.3 mm
02:20 PM 65.7°F18.7°C 58.3°F14.6°C 77% 1.8 mph S2.9 kmh S 8.9 mph14.3 kmh 29.68 in1005.1 mb 0.00 in0.0 mm 0.00 in0.0 mm 0.09 in2.3 mm
02:30 PM 65.3°F18.5°C 58.3°F14.6°C 78% 1.7 mph S2.7 kmh S 5.0 mph8.0 kmh 29.68 in1005.1 mb 0.00 in0.0 mm 0.00 in0.0 mm 0.09 in2.3 mm
02:40 PM 65.1°F18.4°C 58.4°F14.7°C 79% 3.0 mph S4.8 kmh S 9.3 mph15.0 kmh 29.68 in1005.1 mb 0.00 in0.0 mm 0.00 in0.0 mm 0.09 in2.3 mm
02:50 PM 65.1°F18.4°C 58.8°F14.9°C 80% 3.2 mph S5.1 kmh S 10.0 mph16.1 kmh 29.68 in1005.1 mb 0.00 in0.0 mm 0.00 in0.0 mm 0.09 in2.3 mm
03:00 PM 65.3°F18.5°C 59.3°F15.2°C 81% 1.4 mph S2.3 kmh S 5.7 mph9.2 kmh 29.65 in1004.1 mb 0.00 in0.0 mm 0.00 in0.0 mm 0.09 in2.3 mm
03:10 PM 65.1°F18.4°C 59.1°F15.1°C 81% 0.8 mph S1.3 kmh S 5.4 mph8.7 kmh 29.65 in1004.1 mb 0.00 in0.0 mm 0.00 in0.0 mm 0.09 in2.3 mm
03:20 PM 65.1°F18.4°C 59.1°F15.1°C 81% Calm Calm -- 29.65 in1004.1 mb 0.00 in0.0 mm 0.00 in0.0 mm 0.09 in2.3 mm
03:30 PM 64.9°F18.3°C 59.0°F15.0°C 81% 0.6 mph SE1.0 kmh SE 5.0 mph8.0 kmh 29.65 in1004.1 mb 0.00 in0.0 mm 0.00 in0.0 mm 0.09 in2.3 mm
03:40 PM 64.8°F18.2°C 58.8°F14.9°C 81% 0.1 mph SSE0.2 kmh SSE 2.5 mph4.0 kmh 29.65 in1004.1 mb 0.00 in0.0 mm 0.00 in0.0 mm 0.09 in2.3 mm
03:50 PM 64.8°F18.2°C 58.8°F14.9°C 81% Calm Calm -- 29.65 in1004.1 mb 0.00 in0.0 mm 0.00 in0.0 mm 0.09 in2.3 mm
04:00 PM 64.6°F18.1°C 59.0°F15.0°C 82% Calm Calm 1.4 mph2.3 kmh 29.65 in1004.1 mb 0.00 in0.0 mm 0.00 in0.0 mm 0.09 in2.3 mm
04:10 PM 64.6°F18.1°C 59.0°F15.0°C 82% Calm Calm -- 29.65 in1004.1 mb 0.00 in0.0 mm 0.00 in0.0 mm 0.09 in2.3 mm
04:20 PM 64.4°F18.0°C 59.1°F15.1°C 83% Calm Calm -- 29.62 in1003.0 mb 0.00 in0.0 mm 0.00 in0.0 mm 0.09 in2.3 mm
04:30 PM 64.2°F17.9°C 59.3°F15.2°C 84% Calm Calm -- 29.65 in1004.1 mb 0.00 in0.0 mm 0.00 in0.0 mm 0.09 in2.3 mm
04:40 PM 64.0°F17.8°C 59.4°F15.2°C 85% Calm Calm -- 29.65 in1004.1 mb 0.00 in0.0 mm 0.00 in0.0 mm 0.09 in2.3 mm
04:50 PM 64.0°F17.8°C 59.4°F15.2°C 85% Calm Calm 1.8 mph2.9 kmh 29.65 in1004.1 mb 0.00 in0.0 mm 0.00 in0.0 mm 0.09 in2.3 mm
05:00 PM 64.0°F17.8°C 59.8°F15.4°C 86% Calm Calm -- 29.65 in1004.1 mb 0.00 in0.0 mm 0.00 in0.0 mm 0.09 in2.3 mm
05:10 PM 63.9°F17.7°C 59.6°F15.3°C 86% Calm Calm -- 29.65 in1004.1 mb 0.00 in0.0 mm 0.00 in0.0 mm 0.09 in2.3 mm
05:20 PM 63.7°F17.6°C 59.7°F15.4°C 87% 0.6 mph N1.0 kmh N 5.0 mph8.0 kmh 29.65 in1004.1 mb 0.00 in0.0 mm 0.00 in0.0 mm 0.09 in2.3 mm
05:30 PM 63.1°F17.3°C 58.9°F14.9°C 86% 1.9 mph SW3.1 kmh SW 5.0 mph8.0 kmh 29.65 in1004.1 mb 0.00 in0.0 mm 0.00 in0.0 mm 0.09 in2.3 mm
05:40 PM 62.2°F16.8°C 57.7°F14.3°C 85% 0.7 mph SW1.1 kmh SW 5.4 mph8.7 kmh 29.65 in1004.1 mb 0.05 in1.3 mm 0.30 in7.6 mm 0.14 in3.6 mm
05:50 PM 61.9°F16.6°C 57.6°F14.2°C 86% Calm Calm -- 29.65 in1004.1 mb 0.05 in1.3 mm 0.00 in0.0 mm 0.14 in3.6 mm
06:00 PM 61.3°F16.3°C 57.1°F13.9°C 86% 0.2 mph W0.3 kmh W 4.3 mph6.9 kmh 29.65 in1004.1 mb 0.05 in1.3 mm 0.00 in0.0 mm 0.14 in3.6 mm
06:10 PM 61.0°F16.1°C 56.8°F13.8°C 86% 3.9 mph NW6.3 kmh NW 11.8 mph19.0 kmh 29.65 in1004.1 mb 0.05 in1.3 mm 0.00 in0.0 mm 0.14 in3.6 mm
06:20 PM 60.4°F15.8°C 56.6°F13.7°C 87% 5.5 mph W8.9 kmh W 11.8 mph19.0 kmh 29.65 in1004.1 mb 0.05 in1.3 mm 0.00 in0.0 mm 0.14 in3.6 mm
06:30 PM 60.1°F15.6°C 56.2°F13.4°C 87% 5.2 mph WNW8.4 kmh WNW 11.8 mph19.0 kmh 29.65 in1004.1 mb 0.05 in1.3 mm 0.00 in0.0 mm 0.14 in3.6 mm
06:40 PM 59.5°F15.3°C 55.7°F13.2°C 87% 3.6 mph WNW5.8 kmh WNW 14.0 mph22.5 kmh 29.65 in1004.1 mb 0.00 in0.0 mm 0.00 in0.0 mm 0.14 in3.6 mm
06:50 PM 59.4°F15.2°C 55.8°F13.2°C 88% 2.4 mph WNW3.9 kmh WNW 8.9 mph14.3 kmh 29.65 in1004.1 mb 0.00 in0.0 mm 0.00 in0.0 mm 0.14 in3.6 mm
07:00 PM 59.2°F15.1°C 55.6°F13.1°C 88% 1.1 mph WNW1.8 kmh WNW 5.0 mph8.0 kmh 29.65 in1004.1 mb 0.00 in0.0 mm 0.00 in0.0 mm 0.14 in3.6 mm
07:10 PM 59.2°F15.1°C 55.9°F13.3°C 89% 0.4 mph WNW0.6 kmh WNW 3.9 mph6.3 kmh 29.65 in1004.1 mb 0.05 in1.3 mm 0.30 in7.6 mm 0.18 in4.6 mm
07:20 PM 59.2°F15.1°C 55.9°F13.3°C 89% 0.1 mph W0.2 kmh W 2.1 mph3.4 kmh 29.65 in1004.1 mb 0.05 in1.3 mm 0.00 in0.0 mm 0.18 in4.6 mm
07:30 PM 59.0°F15.0°C 55.8°F13.2°C 89% 1.6 mph W2.6 kmh W 2.1 mph3.4 kmh 29.65 in1004.1 mb 0.05 in1.3 mm 0.00 in0.0 mm 0.18 in4.6 mm
07:40 PM 59.0°F15.0°C 55.8°F13.2°C 89% 1.7 mph W2.7 kmh W 2.1 mph3.4 kmh 29.65 in1004.1 mb 0.05 in1.3 mm 0.00 in0.0 mm 0.18 in4.6 mm
07:50 PM 59.0°F15.0°C 56.1°F13.4°C 90% Calm Calm -- 29.62 in1003.0 mb 0.05 in1.3 mm 0.00 in0.0 mm 0.18 in4.6 mm
08:00 PM 59.0°F15.0°C 56.1°F13.4°C 90% Calm Calm -- 29.62 in1003.0 mb 0.05 in1.3 mm 0.00 in0.0 mm 0.18 in4.6 mm
08:10 PM 59.0°F15.0°C 56.1°F13.4°C 90% 0.2 mph W0.3 kmh W 1.4 mph2.3 kmh 29.62 in1003.0 mb 0.06 in1.5 mm 0.06 in1.5 mm 0.24 in6.1 mm
08:20 PM 58.8°F14.9°C 56.2°F13.4°C 91% 2.9 mph NW4.7 kmh NW 3.9 mph6.3 kmh 29.65 in1004.1 mb 0.06 in1.5 mm 0.00 in0.0 mm 0.24 in6.1 mm
08:30 PM 58.6°F14.8°C 56.0°F13.3°C 91% 3.2 mph NW5.1 kmh NW 3.9 mph6.3 kmh 29.62 in1003.0 mb 0.06 in1.5 mm 0.00 in0.0 mm 0.24 in6.1 mm
08:40 PM 58.6°F14.8°C 56.0°F13.3°C 91% 2.7 mph WNW4.3 kmh WNW 3.9 mph6.3 kmh 29.62 in1003.0 mb 0.06 in1.5 mm 0.00 in0.0 mm 0.24 in6.1 mm
08:50 PM 58.5°F14.7°C 55.8°F13.2°C 91% 0.4 mph NW0.6 kmh NW 3.9 mph6.3 kmh 29.62 in1003.0 mb 0.06 in1.5 mm 0.00 in0.0 mm 0.24 in6.1 mm
09:00 PM 58.3°F14.6°C 55.7°F13.2°C 91% 0.8 mph S1.3 kmh S 3.6 mph5.8 kmh 29.62 in1003.0 mb 0.06 in1.5 mm 0.00 in0.0 mm 0.24 in6.1 mm
09:10 PM 57.7°F14.3°C 54.8°F12.7°C 90% Calm Calm -- 29.62 in1003.0 mb 0.00 in0.0 mm 0.00 in0.0 mm 0.24 in6.1 mm
09:20 PM 57.2°F14.0°C 54.3°F12.4°C 90% Calm Calm -- 29.65 in1004.1 mb 0.00 in0.0 mm 0.00 in0.0 mm 0.24 in6.1 mm
09:30 PM 56.8°F13.8°C 53.9°F12.2°C 90% Calm Calm -- 29.62 in1003.0 mb 0.04 in1.0 mm 0.24 in6.1 mm 0.28 in7.1 mm
09:40 PM 56.7°F13.7°C 54.1°F12.3°C 91% 0.5 mph S0.8 kmh S 3.9 mph6.3 kmh 29.62 in1003.0 mb 0.04 in1.0 mm 0.00 in0.0 mm 0.28 in7.1 mm
09:50 PM 57.2°F14.0°C 54.9°F12.7°C 92% 2.2 mph S3.5 kmh S 6.1 mph9.8 kmh 29.65 in1004.1 mb 0.04 in1.0 mm 0.00 in0.0 mm 0.28 in7.1 mm
10:00 PM 57.6°F14.2°C 55.6°F13.1°C 93% 2.4 mph S3.9 kmh S 6.8 mph10.9 kmh 29.65 in1004.1 mb 0.04 in1.0 mm 0.00 in0.0 mm 0.28 in7.1 mm
10:10 PM 57.9°F14.4°C 56.2°F13.4°C 94% 0.6 mph S1.0 kmh S 3.9 mph6.3 kmh 29.65 in1004.1 mb 0.04 in1.0 mm 0.00 in0.0 mm 0.28 in7.1 mm
10:20 PM 58.1°F14.5°C 56.4°F13.6°C 94% Calm Calm -- 29.65 in1004.1 mb 0.04 in1.0 mm 0.00 in0.0 mm 0.28 in7.1 mm
10:30 PM 58.5°F14.7°C 56.7°F13.7°C 94% 2.6 mph WSW4.2 kmh WSW 6.1 mph9.8 kmh 29.62 in1003.0 mb 0.00 in0.0 mm 0.00 in0.0 mm 0.28 in7.1 mm
10:40 PM 58.8°F14.9°C 57.4°F14.1°C 95% 3.8 mph WSW6.1 kmh WSW 8.6 mph13.8 kmh 29.62 in1003.0 mb 0.00 in0.0 mm 0.00 in0.0 mm 0.28 in7.1 mm
10:50 PM 59.2°F15.1°C 57.7°F14.3°C 95% 4.9 mph W7.9 kmh W 9.3 mph15.0 kmh 29.65 in1004.1 mb 0.00 in0.0 mm 0.00 in0.0 mm 0.28 in7.1 mm
11:00 PM 59.2°F15.1°C 57.7°F14.3°C 95% 4.7 mph WSW7.6 kmh WSW 9.3 mph15.0 kmh 29.65 in1004.1 mb 0.00 in0.0 mm 0.00 in0.0 mm 0.25 in6.4 mm
11:10 PM 59.0°F15.0°C 57.3°F14.1°C 94% 3.8 mph W6.1 kmh W 6.8 mph10.9 kmh 29.65 in1004.1 mb 0.00 in0.0 mm 0.00 in0.0 mm 0.25 in6.4 mm
11:20 PM 59.2°F15.1°C 57.5°F14.2°C 94% 4.4 mph W7.1 kmh W 10.4 mph16.7 kmh 29.68 in1005.1 mb 0.00 in0.0 mm 0.00 in0.0 mm 0.25 in6.4 mm
11:30 PM 59.2°F15.1°C 57.5°F14.2°C 94% 3.9 mph W6.3 kmh W 6.8 mph10.9 kmh 29.68 in1005.1 mb 0.00 in0.0 mm 0.00 in0.0 mm 0.25 in6.4 mm
11:40 PM 59.0°F15.0°C 57.3°F14.1°C 94% 3.6 mph W5.8 kmh W 6.8 mph10.9 kmh 29.68 in1005.1 mb 0.00 in0.0 mm 0.00 in0.0 mm 0.25 in6.4 mm
11:50 PM 58.8°F14.9°C 57.1°F13.9°C 94% 4.2 mph WNW6.8 kmh WNW 8.9 mph14.3 kmh 29.68 in1005.1 mb 0.00 in0.0 mm 0.00 in0.0 mm 0.25 in6.4 mm